Time,TemperatureF,DewpointF,PressureIn,WindDirection,WindDirectionDegrees,WindSpeedMPH,WindSpeedGustMPH,Humidity,HourlyPrecipIn,Conditions,Clouds,dailyrainin,SoftwareType,DateUTC
2013-02-02 00:02:00,-9.0,-11.0,-100.00,NNW,335,3.0,4.0,87,-99.99,,,-99.99,,2013-02-02 06:02:00,
2013-02-02 00:12:00,-9.0,-11.0,-100.00,NNW,335,3.0,4.0,87,-99.99,,,-99.99,,2013-02-02 06:12:00,
2013-02-02 00:22:00,-9.0,-11.0,-100.00,NNW,335,3.0,4.0,87,-99.99,,,-99.99,,2013-02-02 06:22:00,
2013-02-02 00:31:00,-9.0,-12.0,-100.00,NNW,340,4.0,6.0,87,-99.99,,,-99.99,,2013-02-02 06:31:00,
2013-02-02 00:42:00,-9.0,-12.0,-100.00,NNW,340,4.0,6.0,87,-99.99,,,-99.99,,2013-02-02 06:42:00,
2013-02-02 00:52:00,-9.0,-12.0,-100.00,NNW,340,4.0,6.0,87,-99.99,,,-99.99,,2013-02-02 06:52:00,
2013-02-02 01:02:00,-8.0,-11.0,-100.00,North,355,4.0,6.0,87,-99.99,,,-99.99,,2013-02-02 07:02:00,
2013-02-02 01:12:00,-8.0,-11.0,-100.00,North,355,4.0,6.0,87,-99.99,,,-99.99,,2013-02-02 07:12:00,
2013-02-02 01:21:00,-8.0,-11.0,-100.00,North,355,4.0,6.0,87,-99.99,,,-99.99,,2013-02-02 07:21:00,
2013-02-02 01:31:00,-10.0,-12.0,-100.00,NNW,345,3.0,4.0,87,-99.99,,,-99.99,,2013-02-02 07:31:00,
2013-02-02 01:42:00,-10.0,-12.0,-100.00,NNW,345,3.0,4.0,87,-99.99,,,-99.99,,2013-02-02 07:42:00,
2013-02-02 01:52:00,-10.0,-12.0,-100.00,NNW,345,3.0,4.0,87,-99.99,,,-99.99,,2013-02-02 07:52:00,
2013-02-02 02:01:00,-11.0,-14.0,-100.00,NW,325,1.0,2.0,87,-99.99,,,-99.99,,2013-02-02 08:01:00,
2013-02-02 02:11:00,-11.0,-14.0,-100.00,NW,325,1.0,2.0,87,-99.99,,,-99.99,,2013-02-02 08:11:00,
2013-02-02 02:21:00,-11.0,-14.0,-100.00,NW,325,1.0,2.0,87,-99.99,,,-99.99,,2013-02-02 08:21:00,
2013-02-02 02:31:00,-10.0,-13.0,-100.00,NW,325,5.0,6.0,87,-99.99,,,-99.99,,2013-02-02 08:31:00,
2013-02-02 02:42:00,-10.0,-13.0,-100.00,NW,325,5.0,6.0,87,-99.99,,,-99.99,,2013-02-02 08:42:00,
2013-02-02 02:53:00,-10.0,-13.0,-100.00,NW,325,5.0,6.0,87,-99.99,,,-99.99,,2013-02-02 08:53:00,
2013-02-02 03:01:00,-11.0,-14.0,-100.00,NW,325,6.0,7.0,87,-99.99,,,-99.99,,2013-02-02 09:01:00,
2013-02-02 03:11:00,-11.0,-14.0,-100.00,NW,325,6.0,7.0,87,-99.99,,,-99.99,,2013-02-02 09:11:00,
2013-02-02 03:22:00,-11.0,-14.0,-100.00,NW,325,6.0,7.0,87,-99.99,,,-99.99,,2013-02-02 09:22:00,
2013-02-02 03:31:00,-12.0,-15.0,-100.00,NW,315,6.0,6.0,87,-99.99,,,-99.99,,2013-02-02 09:31:00,
2013-02-02 03:42:00,-12.0,-15.0,-100.00,NW,315,6.0,6.0,87,-99.99,,,-99.99,,2013-02-02 09:42:00,
2013-02-02 03:52:00,-12.0,-15.0,-100.00,NW,315,6.0,6.0,87,-99.99,,,-99.99,,2013-02-02 09:52:00,
2013-02-02 04:01:00,-12.0,-15.0,-100.00,NW,315,4.0,7.0,87,-99.99,,,-99.99,,2013-02-02 10:01:00,
2013-02-02 04:11:00,-12.0,-15.0,-100.00,NW,315,4.0,7.0,87,-99.99,,,-99.99,,2013-02-02 10:11:00,
2013-02-02 04:21:00,-12.0,-15.0,-100.00,NW,315,4.0,7.0,87,-99.99,,,-99.99,,2013-02-02 10:21:00,
2013-02-02 04:31:00,-13.0,-16.0,-100.00,NW,310,3.0,4.0,87,-99.99,,,-99.99,,2013-02-02 10:31:00,
2013-02-02 04:42:00,-13.0,-16.0,-100.00,NW,310,3.0,4.0,87,-99.99,,,-99.99,,2013-02-02 10:42:00,
2013-02-02 04:52:00,-13.0,-16.0,-100.00,NW,310,3.0,4.0,87,-99.99,,,-99.99,,2013-02-02 10:52:00,
2013-02-02 05:01:00,-13.0,-16.0,-100.00,NW,310,3.0,4.0,87,-99.99,,,-99.99,,2013-02-02 11:01:00,
2013-02-02 05:11:00,-13.0,-16.0,-100.00,NW,310,3.0,4.0,87,-99.99,,,-99.99,,2013-02-02 11:11:00,
2013-02-02 05:21:00,-13.0,-16.0,-100.00,NW,310,3.0,4.0,87,-99.99,,,-99.99,,2013-02-02 11:21:00,
2013-02-02 05:32:00,-13.0,-16.0,-100.00,NW,310,3.0,4.0,87,-99.99,,,-99.99,,2013-02-02 11:32:00,
2013-02-02 06:02:00,-12.0,-15.0,-100.00,West,270,1.0,3.0,87,-99.99,,,-99.99,,2013-02-02 12:02:00,
2013-02-02 06:11:00,-12.0,-15.0,-100.00,West,270,1.0,3.0,87,-99.99,,,-99.99,,2013-02-02 12:11:00,
2013-02-02 06:22:00,-12.0,-15.0,-100.00,West,270,1.0,3.0,87,-99.99,,,-99.99,,2013-02-02 12:22:00,
2013-02-02 06:32:00,-13.0,-16.0,-100.00,West,270,1.0,1.0,87,-99.99,,,-99.99,,2013-02-02 12:32:00,
2013-02-02 06:42:00,-13.0,-16.0,-100.00,West,270,1.0,1.0,87,-99.99,,,-99.99,,2013-02-02 12:42:00,
2013-02-02 06:52:00,-13.0,-16.0,-100.00,West,270,1.0,1.0,87,-99.99,,,-99.99,,2013-02-02 12:52:00,
2013-02-02 07:02:00,-11.0,-14.0,-100.00,WNW,300,1.0,2.0,87,-99.99,,,-99.99,,2013-02-02 13:02:00,
2013-02-02 07:11:00,-11.0,-14.0,-100.00,WNW,300,1.0,2.0,87,-99.99,,,-99.99,,2013-02-02 13:11:00,
2013-02-02 07:21:00,-11.0,-14.0,-100.00,WNW,300,1.0,2.0,87,-99.99,,,-99.99,,2013-02-02 13:21:00,
2013-02-02 07:32:00,-10.0,-13.0,-100.00,WNW,300,1.0,1.0,87,-99.99,,,-99.99,,2013-02-02 13:32:00,
2013-02-02 07:42:00,-10.0,-13.0,-100.00,WNW,300,1.0,1.0,87,-99.99,,,-99.99,,2013-02-02 13:42:00,
2013-02-02 07:52:00,-10.0,-13.0,-100.00,WNW,300,1.0,1.0,87,-99.99,,,-99.99,,2013-02-02 13:52:00,
2013-02-02 08:02:00,-9.0,-12.0,-100.00,SW,215,0.0,1.0,87,-99.99,,,-99.99,,2013-02-02 14:02:00,
2013-02-02 08:11:00,-9.0,-12.0,-100.00,SW,215,0.0,1.0,87,-99.99,,,-99.99,,2013-02-02 14:11:00,
2013-02-02 08:22:00,-9.0,-12.0,-100.00,SW,215,0.0,1.0,87,-99.99,,,-99.99,,2013-02-02 14:22:00,
2013-02-02 08:32:00,-9.0,-12.0,-100.00,SSW,200,1.0,2.0,87,-99.99,,,-99.99,,2013-02-02 14:32:00,
2013-02-02 08:42:00,-9.0,-12.0,-100.00,SSW,200,1.0,2.0,87,-99.99,,,-99.99,,2013-02-02 14:42:00,
2013-02-02 08:52:00,-9.0,-12.0,-100.00,SSW,200,1.0,2.0,87,-99.99,,,-99.99,,2013-02-02 14:52:00,
2013-02-02 09:03:00,-8.0,-11.0,-100.00,SSE,150,2.0,3.0,87,-99.99,,,-99.99,,2013-02-02 15:03:00,
2013-02-02 09:12:00,-8.0,-11.0,-100.00,SSE,150,2.0,3.0,87,-99.99,,,-99.99,,2013-02-02 15:12:00,
2013-02-02 09:22:00,-8.0,-11.0,-100.00,SSE,150,2.0,3.0,87,-99.99,,,-99.99,,2013-02-02 15:22:00,
2013-02-02 09:32:00,-5.0,-8.0,-100.00,SSE,165,2.0,5.0,88,-99.99,,,-99.99,,2013-02-02 15:32:00,
2013-02-02 09:42:00,-5.0,-8.0,-100.00,SSE,165,2.0,5.0,88,-99.99,,,-99.99,,2013-02-02 15:42:00,
2013-02-02 09:52:00,-5.0,-8.0,-100.00,SSE,165,2.0,5.0,88,-99.99,,,-99.99,,2013-02-02 15:52:00,
2013-02-02 10:03:00,-4.0,-7.0,-100.00,South,190,5.0,7.0,88,-99.99,,,-99.99,,2013-02-02 16:03:00,
2013-02-02 10:11:00,-4.0,-7.0,-100.00,South,190,5.0,7.0,88,-99.99,,,-99.99,,2013-02-02 16:11:00,
2013-02-02 10:22:00,-4.0,-7.0,-100.00,South,190,5.0,7.0,88,-99.99,,,-99.99,,2013-02-02 16:22:00,
2013-02-02 10:32:00,-3.0,-6.0,-100.00,South,185,8.0,14.0,88,-99.99,,,-99.99,,2013-02-02 16:32:00,
2013-02-02 10:42:00,-3.0,-6.0,-100.00,South,185,8.0,14.0,88,-99.99,,,-99.99,,2013-02-02 16:42:00,
2013-02-02 10:52:00,-3.0,-6.0,-100.00,South,185,8.0,14.0,88,-99.99,,,-99.99,,2013-02-02 16:52:00,
2013-02-02 11:02:00,-2.0,-4.0,-100.00,South,180,9.0,17.0,88,-99.99,,,-99.99,,2013-02-02 17:02:00,
2013-02-02 11:11:00,-2.0,-4.0,-100.00,South,180,9.0,17.0,88,-99.99,,,-99.99,,2013-02-02 17:11:00,
2013-02-02 11:22:00,-2.0,-4.0,-100.00,South,180,9.0,17.0,88,-99.99,,,-99.99,,2013-02-02 17:22:00,
2013-02-02 11:32:00,0.0,-3.0,-100.00,South,185,11.0,19.0,86,-99.99,,,-99.99,,2013-02-02 17:32:00,
2013-02-02 11:42:00,0.0,-3.0,-100.00,South,185,11.0,19.0,86,-99.99,,,-99.99,,2013-02-02 17:42:00,
2013-02-02 11:52:00,0.0,-3.0,-100.00,South,185,11.0,19.0,86,-99.99,,,-99.99,,2013-02-02 17:52:00,
2013-02-02 12:02:00,1.0,-3.0,-100.00,South,175,13.0,18.0,84,-99.99,,,-99.99,,2013-02-02 18:02:00,
2013-02-02 12:12:00,1.0,-3.0,-100.00,South,175,13.0,18.0,84,-99.99,,,-99.99,,2013-02-02 18:12:00,
2013-02-02 12:22:00,1.0,-3.0,-100.00,South,175,13.0,18.0,84,-99.99,,,-99.99,,2013-02-02 18:22:00,
2013-02-02 12:32:00,1.0,-3.0,-100.00,South,190,12.0,19.0,83,-99.99,,,-99.99,,2013-02-02 18:32:00,
2013-02-02 12:42:00,1.0,-3.0,-100.00,South,190,12.0,19.0,83,-99.99,,,-99.99,,2013-02-02 18:42:00,
2013-02-02 12:52:00,1.0,-3.0,-100.00,South,190,12.0,19.0,83,-99.99,,,-99.99,,2013-02-02 18:52:00,
2013-02-02 13:02:00,2.0,-3.0,-100.00,South,190,12.0,17.0,83,-99.99,,,-99.99,,2013-02-02 19:02:00,
2013-02-02 13:12:00,2.0,-3.0,-100.00,South,190,12.0,17.0,83,-99.99,,,-99.99,,2013-02-02 19:12:00,
2013-02-02 13:21:00,2.0,-3.0,-100.00,South,190,12.0,17.0,83,-99.99,,,-99.99,,2013-02-02 19:21:00,
2013-02-02 13:32:00,2.0,-2.0,-100.00,South,180,10.0,16.0,85,-99.99,,,-99.99,,2013-02-02 19:32:00,
2013-02-02 13:42:00,2.0,-2.0,-100.00,South,180,10.0,16.0,85,-99.99,,,-99.99,,2013-02-02 19:42:00,
2013-02-02 13:52:00,2.0,-2.0,-100.00,South,180,10.0,16.0,85,-99.99,,,-99.99,,2013-02-02 19:52:00,
2013-02-02 14:01:00,2.0,-1.0,-100.00,SSE,165,10.0,14.0,85,-99.99,,,-99.99,,2013-02-02 20:01:00,
2013-02-02 14:11:00,2.0,-1.0,-100.00,SSE,165,10.0,14.0,85,-99.99,,,-99.99,,2013-02-02 20:11:00,
2013-02-02 14:21:00,2.0,-1.0,-100.00,SSE,165,10.0,14.0,85,-99.99,,,-99.99,,2013-02-02 20:21:00,
2013-02-02 14:32:00,3.0,0.0,-100.00,SSE,155,9.0,11.0,84,-99.99,,,-99.99,,2013-02-02 20:32:00,
2013-02-02 14:42:00,3.0,0.0,-100.00,SSE,155,9.0,11.0,84,-99.99,,,-99.99,,2013-02-02 20:42:00,
2013-02-02 14:52:00,3.0,0.0,-100.00,SSE,155,9.0,11.0,84,-99.99,,,-99.99,,2013-02-02 20:52:00,
2013-02-02 15:02:00,4.0,0.0,-100.00,SSE,165,8.0,15.0,83,-99.99,,,-99.99,,2013-02-02 21:02:00,
2013-02-02 15:11:00,4.0,0.0,-100.00,SSE,165,8.0,15.0,83,-99.99,,,-99.99,,2013-02-02 21:11:00,
2013-02-02 15:21:00,4.0,0.0,-100.00,SSE,165,8.0,15.0,83,-99.99,,,-99.99,,2013-02-02 21:21:00,
2013-02-02 15:32:00,3.0,-1.0,-100.00,SSE,155,10.0,12.0,82,-99.99,,,-99.99,,2013-02-02 21:32:00,
2013-02-02 15:42:00,3.0,-1.0,-100.00,SSE,155,10.0,12.0,82,-99.99,,,-99.99,,2013-02-02 21:42:00,
2013-02-02 15:52:00,3.0,-1.0,-100.00,SSE,155,10.0,12.0,82,-99.99,,,-99.99,,2013-02-02 21:52:00,
2013-02-02 16:02:00,4.0,-1.0,-100.00,SSE,165,7.0,12.0,82,-99.99,,,-99.99,,2013-02-02 22:02:00,
2013-02-02 16:12:00,4.0,-1.0,-100.00,SSE,165,7.0,12.0,82,-99.99,,,-99.99,,2013-02-02 22:12:00,
2013-02-02 16:21:00,4.0,-1.0,-100.00,SSE,165,7.0,12.0,82,-99.99,,,-99.99,,2013-02-02 22:21:00,
2013-02-02 16:32:00,4.0,-1.0,-100.00,SSE,165,6.0,10.0,82,-99.99,,,-99.99,,2013-02-02 22:32:00,
2013-02-02 16:42:00,4.0,-1.0,-100.00,SSE,165,6.0,10.0,82,-99.99,,,-99.99,,2013-02-02 22:42:00,
2013-02-02 16:52:00,4.0,-1.0,-100.00,SSE,165,6.0,10.0,82,-99.99,,,-99.99,,2013-02-02 22:52:00,
2013-02-02 17:02:00,4.0,0.0,-100.00,South,180,6.0,9.0,83,-99.99,,,-99.99,,2013-02-02 23:02:00,
2013-02-02 17:11:00,4.0,0.0,-100.00,South,180,6.0,9.0,83,-99.99,,,-99.99,,2013-02-02 23:11:00,
2013-02-02 17:21:00,4.0,0.0,-100.00,South,180,6.0,9.0,83,-99.99,,,-99.99,,2013-02-02 23:21:00,
2013-02-02 17:32:00,4.0,0.0,-100.00,SSW,195,4.0,6.0,83,-99.99,,,-99.99,,2013-02-02 23:32:00,
2013-02-02 17:42:00,4.0,0.0,-100.00,SSW,195,4.0,6.0,83,-99.99,,,-99.99,,2013-02-02 23:42:00,
2013-02-02 17:52:00,4.0,0.0,-100.00,SSW,195,4.0,6.0,83,-99.99,,,-99.99,,2013-02-02 23:52:00,
2013-02-02 18:02:00,4.0,0.0,-100.00,SW,215,3.0,7.0,85,-99.99,,,-99.99,,2013-02-03 00:02:00,
2013-02-02 18:11:00,4.0,0.0,-100.00,SW,215,3.0,7.0,85,-99.99,,,-99.99,,2013-02-03 00:11:00,
2013-02-02 18:22:00,4.0,0.0,-100.00,SW,215,3.0,7.0,85,-99.99,,,-99.99,,2013-02-03 00:22:00,
2013-02-02 18:32:00,4.0,0.0,-100.00,SSW,200,2.0,5.0,85,-99.99,,,-99.99,,2013-02-03 00:32:00,
2013-02-02 18:42:00,4.0,0.0,-100.00,SSW,200,2.0,5.0,85,-99.99,,,-99.99,,2013-02-03 00:42:00,
2013-02-02 18:52:00,4.0,0.0,-100.00,SSW,200,2.0,5.0,85,-99.99,,,-99.99,,2013-02-03 00:52:00,
2013-02-02 19:02:00,4.0,1.0,-100.00,WSW,240,4.0,6.0,86,-99.99,,,-99.99,,2013-02-03 01:02:00,
2013-02-02 19:11:00,4.0,1.0,-100.00,WSW,240,4.0,6.0,86,-99.99,,,-99.99,,2013-02-03 01:11:00,
2013-02-02 19:21:00,4.0,1.0,-100.00,WSW,240,4.0,6.0,86,-99.99,,,-99.99,,2013-02-03 01:21:00,
2013-02-02 19:32:00,4.0,1.0,-100.00,WSW,240,5.0,7.0,86,-99.99,,,-99.99,,2013-02-03 01:32:00,
2013-02-02 19:42:00,4.0,1.0,-100.00,WSW,240,5.0,7.0,86,-99.99,,,-99.99,,2013-02-03 01:42:00,
2013-02-02 19:52:00,4.0,1.0,-100.00,WSW,240,5.0,7.0,86,-99.99,,,-99.99,,2013-02-03 01:52:00,
2013-02-02 20:01:00,5.0,2.0,-100.00,West,260,6.0,8.0,87,-99.99,,,-99.99,,2013-02-03 02:01:00,
2013-02-02 20:11:00,5.0,2.0,-100.00,West,260,6.0,8.0,87,-99.99,,,-99.99,,2013-02-03 02:11:00,
2013-02-02 20:21:00,5.0,2.0,-100.00,West,260,6.0,8.0,87,-99.99,,,-99.99,,2013-02-03 02:21:00,
2013-02-02 20:32:00,5.0,2.0,-100.00,West,275,6.0,7.0,87,-99.99,,,-99.99,,2013-02-03 02:32:00,
2013-02-02 20:42:00,5.0,2.0,-100.00,West,275,6.0,7.0,87,-99.99,,,-99.99,,2013-02-03 02:42:00,
2013-02-02 20:52:00,5.0,2.0,-100.00,West,275,6.0,7.0,87,-99.99,,,-99.99,,2013-02-03 02:52:00,
2013-02-02 21:02:00,4.0,2.0,-100.00,WNW,300,9.0,12.0,89,-99.99,,,-99.99,,2013-02-03 03:02:00,
2013-02-02 21:11:00,4.0,2.0,-100.00,WNW,300,9.0,12.0,89,-99.99,,,-99.99,,2013-02-03 03:11:00,
2013-02-02 21:21:00,4.0,2.0,-100.00,WNW,300,9.0,12.0,89,-99.99,,,-99.99,,2013-02-03 03:21:00,
2013-02-02 21:31:00,5.0,2.0,-100.00,NW,310,14.0,19.0,87,-99.99,,,-99.99,,2013-02-03 03:31:00,
2013-02-02 21:42:00,5.0,2.0,-100.00,NW,310,14.0,19.0,87,-99.99,,,-99.99,,2013-02-03 03:42:00,
2013-02-02 21:52:00,5.0,2.0,-100.00,NW,310,14.0,19.0,87,-99.99,,,-99.99,,2013-02-03 03:52:00,
2013-02-02 22:01:00,6.0,2.0,-100.00,NW,310,12.0,16.0,85,-99.99,,,-99.99,,2013-02-03 04:01:00,
2013-02-02 22:11:00,6.0,2.0,-100.00,NW,310,12.0,16.0,85,-99.99,,,-99.99,,2013-02-03 04:11:00,
2013-02-02 22:21:00,6.0,2.0,-100.00,NW,310,12.0,16.0,85,-99.99,,,-99.99,,2013-02-03 04:21:00,
2013-02-02 22:31:00,6.0,2.0,-100.00,NW,315,13.0,16.0,81,-99.99,,,-99.99,,2013-02-03 04:31:00,
2013-02-02 22:42:00,6.0,2.0,-100.00,NW,315,13.0,16.0,81,-99.99,,,-99.99,,2013-02-03 04:42:00,
2013-02-02 22:52:00,6.0,2.0,-100.00,NW,315,13.0,16.0,81,-99.99,,,-99.99,,2013-02-03 04:52:00,
2013-02-02 23:03:00,7.0,2.0,-100.00,WNW,300,11.0,16.0,81,-99.99,,,-99.99,,2013-02-03 05:03:00,
2013-02-02 23:12:00,7.0,2.0,-100.00,WNW,300,11.0,16.0,81,-99.99,,,-99.99,,2013-02-03 05:12:00,
2013-02-02 23:22:00,7.0,2.0,-100.00,WNW,300,11.0,16.0,81,-99.99,,,-99.99,,2013-02-03 05:22:00,
2013-02-02 23:32:00,7.0,3.0,-100.00,NW,305,10.0,16.0,81,-99.99,,,-99.99,,2013-02-03 05:32:00,
2013-02-02 23:42:00,7.0,3.0,-100.00,NW,305,10.0,16.0,81,-99.99,,,-99.99,,2013-02-03 05:42:00,
2013-02-02 23:52:00,7.0,3.0,-100.00,NW,305,10.0,16.0,81,-99.99,,,-99.99,,2013-02-03 05:52:00,